Погода Кампанана неделю

Минас-Жерайс, Бразилия

25 - 31 июля
  • 25июля
    Сегодня
    +8°
    +24°
    Ясно и безоблачно
    ВремяПогодаТемператураВлажностьДавлениеВетер, м/сВероятность осадков
    00:00Практически безоблачно+13°C73 %691 мм2.3 м/с5 %
    03:00Ясно и безоблачно+11°C81 %690 мм2.3 м/с5 %
    06:00Ясно и безоблачно+9°C86 %689 мм2.0 м/с5 %
    09:00Ясно и безоблачно+13°C63 %691 мм1.4 м/с5 %
    12:00Ясно и безоблачно+20°C48 %692 мм1.8 м/с5 %
    15:00Ясно и безоблачно+24°C42 %690 мм1.7 м/с5 %
    18:00Ясно и безоблачно+19°C56 %689 мм1.0 м/с5 %
    21:00Ясно и безоблачно+19°C54 %689 мм1.2 м/с5 %
  • 26июля
    Пятница
    +11°
    +26°
    Ясно и безоблачно
    ВремяПогодаТемператураВлажностьДавлениеВетер, м/сВероятность осадков
    00:00Ясно и безоблачно+13°C74 %688 мм1.9 м/с5 %
    03:00Ясно и безоблачно+11°C81 %687 мм1.8 м/с5 %
    06:00Ясно и безоблачно+9°C86 %687 мм1.3 м/с5 %
    09:00Ясно и безоблачно+15°C62 %690 мм1.4 м/с5 %
    12:00Ясно и безоблачно+21°C43 %690 мм1.3 м/с5 %
    15:00Ясно и безоблачно+25°C38 %689 мм1.3 м/с5 %
    18:00Облачно с прояснениями+20°C49 %689 мм0.7 м/с5 %
    21:00Облачно с прояснениями+20°C54 %689 мм1.6 м/с5 %
  • 27июля
    Суббота
    +13°
    +27°
    Ясно и безоблачно
    ВремяПогодаТемператураВлажностьДавлениеВетер, м/сВероятность осадков
    00:00Облачно с прояснениями+14°C66 %688 мм1.8 м/с5 %
    03:00Облачно с прояснениями+12°C72 %687 мм2.1 м/с5 %
    06:00Небольшая облачность+11°C74 %687 мм2.2 м/с5 %
    09:00Небольшая облачность+16°C58 %690 мм2.0 м/с5 %
    12:00Ясно и безоблачно+22°C41 %691 мм1.6 м/с5 %
    15:00Ясно и безоблачно+26°C37 %690 мм1.0 м/с5 %
    18:00Ясно и безоблачно+22°C45 %690 мм0.6 м/с5 %
    21:00Ясно и безоблачно+19°C61 %690 мм1.4 м/с5 %
  • 28июля
    Воскресенье
    +12°
    +28°
    Практически безоблачно
    ВремяПогодаТемператураВлажностьДавлениеВетер, м/сВероятность осадков
    00:00Ясно и безоблачно+15°C63 %689 мм3.3 м/с5 %
    03:00Ясно и безоблачно+14°C76 %689 мм2.5 м/с5 %
    06:00Ясно и безоблачно+13°C80 %689 мм2.4 м/с5 %
    09:00Ясно и безоблачно+16°C64 %691 мм2.3 м/с5 %
    12:00Ясно и безоблачно+23°C52 %691 мм2.3 м/с5 %
    15:00Практически безоблачно+27°C40 %690 мм2.5 м/с5 %
    18:00Практически безоблачно+20°C58 %689 мм1.9 м/с8 %
    21:00Практически безоблачно+22°C48 %690 мм0.8 м/с4 %
  • 29июля
    Понедельник
    +10°
    +29°
    Ясно и безоблачно
    ВремяПогодаТемператураВлажностьДавлениеВетер, м/сВероятность осадков
    00:00Ясно и безоблачно+15°C71 %689 мм2.0 м/с4 %
    03:00Небольшая облачность+15°C74 %688 мм2.1 м/с5 %
    06:00Ясно и безоблачно+13°C77 %689 мм1.9 м/с5 %
    09:00Ясно и безоблачно+17°C62 %691 мм1.7 м/с5 %
    12:00Ясно и безоблачно+23°C48 %691 мм1.7 м/с5 %
    15:00Ясно и безоблачно+28°C38 %690 мм1.8 м/с5 %
    18:00Практически безоблачно+22°C48 %689 мм0.7 м/с5 %
    21:00Практически безоблачно+20°C59 %690 мм3.2 м/с5 %
Мы используем cookies
Соглашаюсь